Time;durP1;ratioP1;P1;durP2;ratioP2;P2;SDS_P1;SDS_P2;PMS_P1;PMS_P2;Temp;Humidity;BMP_temperature;BMP_pressure;BME280_temperature;BME280_humidity;BME280_pressure;Samples;Min_cycle;Max_cycle;Signal;HPM_P1;HPM_P2
2023/11/12 00:00:30;;;;;;;26.50;15.85;;;6.80;99.90;;;;;;5013382;28;20026;-75
2023/11/12 00:02:56;;;;;;;29.85;15.55;;;6.80;99.90;;;;;;5013796;28;20048;-76
2023/11/12 00:05:22;;;;;;;27.40;16.02;;;6.80;99.90;;;;;;5013171;28;20084;-75
2023/11/12 00:07:47;;;;;;;30.27;16.05;;;6.80;99.90;;;;;;5013707;28;20091;-76
2023/11/12 00:10:13;;;;;;;27.42;16.38;;;6.90;99.90;;;;;;5013569;28;20408;-75
2023/11/12 00:12:40;;;;;;;31.30;16.42;;;6.80;99.90;;;;;;5013725;28;20061;-75
2023/11/12 00:15:06;;;;;;;30.52;16.63;;;6.80;99.90;;;;;;5013791;28;20096;-75
2023/11/12 00:17:33;;;;;;;29.80;17.13;;;6.90;99.90;;;;;;5013259;28;20109;-75
2023/11/12 00:19:59;;;;;;;30.05;16.98;;;6.90;99.90;;;;;;5017129;28;20117;-76
2023/11/12 00:22:26;;;;;;;32.40;16.70;;;6.90;99.90;;;;;;5017508;28;20072;-75
2023/11/12 00:24:51;;;;;;;30.00;16.27;;;6.90;99.90;;;;;;5016968;28;20079;-75
2023/11/12 00:27:18;;;;;;;28.42;16.13;;;6.90;99.90;;;;;;5016871;28;20030;-76
2023/11/12 00:29:44;;;;;;;27.90;15.75;;;6.90;99.90;;;;;;5017266;28;20030;-75
2023/11/12 00:32:09;;;;;;;27.38;15.38;;;6.90;99.90;;;;;;5017155;28;20049;-75
2023/11/12 00:34:35;;;;;;;27.20;15.02;;;6.90;99.90;;;;;;5017066;28;20034;-75
2023/11/12 00:37:01;;;;;;;28.55;15.80;;;6.90;99.90;;;;;;5017120;28;20036;-75
2023/11/12 00:39:27;;;;;;;29.35;15.05;;;6.90;99.90;;;;;;5016218;28;20028;-75
2023/11/12 00:41:53;;;;;;;27.52;15.38;;;6.90;99.90;;;;;;5016384;28;20116;-76
2023/11/12 00:44:19;;;;;;;26.13;15.20;;;6.90;99.90;;;;;;5016676;28;20105;-75
2023/11/12 00:46:44;;;;;;;25.67;15.43;;;6.90;99.90;;;;;;5016780;28;20455;-75
2023/11/12 00:49:10;;;;;;;25.30;15.25;;;6.90;99.90;;;;;;5016598;28;20029;-75
2023/11/12 00:51:36;;;;;;;27.30;15.18;;;6.90;99.90;;;;;;5016284;28;20068;-75
2023/11/12 00:54:02;;;;;;;23.83;14.40;;;6.90;99.90;;;;;;5016586;28;20022;-75
2023/11/12 00:56:27;;;;;;;22.02;13.93;;;6.90;99.90;;;;;;5016891;28;20483;-75
2023/11/12 00:58:53;;;;;;;24.63;14.77;;;6.90;99.90;;;;;;5016748;28;20033;-76
2023/11/12 01:01:19;;;;;;;22.80;13.38;;;6.90;99.90;;;;;;5016514;28;20044;-77
2023/11/12 01:03:45;;;;;;;24.30;14.00;;;6.90;99.90;;;;;;5016656;28;20376;-75
2023/11/12 01:06:10;;;;;;;22.25;14.05;;;6.90;99.90;;;;;;5016631;28;20038;-75
2023/11/12 01:08:37;;;;;;;22.73;14.00;;;6.90;99.90;;;;;;5016554;28;20034;-76
2023/11/12 01:11:03;;;;;;;24.30;13.50;;;6.80;99.90;;;;;;5015830;28;20057;-75
2023/11/12 01:13:29;;;;;;;27.08;14.15;;;6.90;99.90;;;;;;5016013;28;20125;-76
2023/11/12 01:15:56;;;;;;;26.90;14.90;;;6.90;99.90;;;;;;5016156;28;20033;-76
2023/11/12 01:18:21;;;;;;;25.00;14.65;;;6.80;99.90;;;;;;5015197;28;20022;-75
2023/11/12 01:20:47;;;;;;;23.70;14.25;;;6.90;99.90;;;;;;5015917;28;20113;-76
2023/11/12 01:23:13;;;;;;;25.17;14.43;;;6.90;99.90;;;;;;5015692;28;20030;-76
2023/11/12 01:25:40;;;;;;;24.05;14.65;;;6.90;99.90;;;;;;5016225;28;20030;-76
2023/11/12 01:28:06;;;;;;;25.90;13.95;;;6.80;99.90;;;;;;5016086;28;20476;-76
2023/11/12 01:30:32;;;;;;;24.40;14.18;;;6.90;99.90;;;;;;5015975;28;20057;-75
2023/11/12 01:32:58;;;;;;;23.00;14.48;;;6.90;99.90;;;;;;5016118;28;20060;-75
2023/11/12 01:35:24;;;;;;;27.52;13.98;;;6.90;99.90;;;;;;5016056;28;20030;-75
2023/11/12 01:37:49;;;;;;;28.52;14.88;;;6.80;99.90;;;;;;5015989;28;20488;-75
2023/11/12 01:40:16;;;;;;;27.83;14.52;;;6.90;99.90;;;;;;5015578;28;20164;-75
2023/11/12 01:42:42;;;;;;;22.27;14.50;;;6.80;99.90;;;;;;5015933;28;20060;-75
2023/11/12 01:45:09;;;;;;;23.02;13.98;;;6.80;99.90;;;;;;5015584;28;20112;-75
2023/11/12 01:47:36;;;;;;;27.83;14.30;;;6.80;99.90;;;;;;5015322;28;20392;-75
2023/11/12 01:50:04;;;;;;;25.30;14.18;;;6.90;99.90;;;;;;5014507;28;20026;-76
2023/11/12 01:52:32;;;;;;;25.98;15.82;;;6.80;99.90;;;;;;5015467;28;20088;-75
2023/11/12 01:55:00;;;;;;;23.85;15.38;;;6.80;99.90;;;;;;5015134;28;20104;-76
2023/11/12 01:57:26;;;;;;;23.10;14.73;;;6.80;99.90;;;;;;5015658;28;20518;-74
2023/11/12 01:59:53;;;;;;;25.75;16.15;;;6.80;99.90;;;;;;5015604;28;20054;-77
2023/11/12 02:02:20;;;;;;;26.60;16.20;;;6.70;99.90;;;;;;5014366;28;20032;-76
2023/11/12 02:04:48;;;;;;;28.27;15.80;;;6.70;99.90;;;;;;5014778;28;20029;-75
2023/11/12 02:07:14;;;;;;;26.73;16.08;;;6.70;99.90;;;;;;5014752;28;20030;-75
2023/11/12 02:09:41;;;;;;;27.00;15.80;;;6.70;99.90;;;;;;5014835;28;20076;-75
2023/11/12 02:12:07;;;;;;;28.25;16.70;;;6.60;99.90;;;;;;5014263;28;20125;-75
2023/11/12 02:14:33;;;;;;;29.27;17.45;;;6.70;99.90;;;;;;5015022;28;20025;-75
2023/11/12 02:16:59;;;;;;;30.05;17.67;;;6.60;99.90;;;;;;5015273;28;20368;-77
2023/11/12 02:19:26;;;;;;;31.58;17.42;;;6.70;99.90;;;;;;5015028;28;20114;-75
2023/11/12 02:21:52;;;;;;;29.45;17.33;;;6.70;99.90;;;;;;5014976;28;20033;-75
2023/11/12 02:24:19;;;;;;;29.52;17.35;;;6.70;99.90;;;;;;5015364;28;20172;-75
2023/11/12 02:26:46;;;;;;;28.17;16.42;;;6.70;99.90;;;;;;5015132;28;20037;-75
2023/11/12 02:29:12;;;;;;;29.42;16.58;;;6.70;99.90;;;;;;5014836;28;20361;-75
2023/11/12 02:31:38;;;;;;;30.17;16.90;;;6.70;99.90;;;;;;5014302;28;20036;-75
2023/11/12 02:34:04;;;;;;;29.05;17.23;;;6.70;99.90;;;;;;5014651;28;20025;-76
2023/11/12 02:36:31;;;;;;;32.08;17.80;;;6.70;99.90;;;;;;5014992;28;20026;-75
2023/11/12 02:38:57;;;;;;;26.95;16.88;;;6.70;99.90;;;;;;5013782;28;20117;-76
2023/11/12 02:41:22;;;;;;;24.73;16.88;;;6.70;99.90;;;;;;5014107;28;20061;-76
2023/11/12 02:43:49;;;;;;;30.67;17.30;;;6.70;99.90;;;;;;5014844;28;20037;-75
2023/11/12 02:46:16;;;;;;;29.17;17.63;;;6.70;99.90;;;;;;5014526;28;20032;-75
2023/11/12 02:49:12;;;;;;;29.75;17.85;;;6.70;99.90;;;;;;5014897;28;20120;-76
2023/11/12 02:51:38;;;;;;;31.10;16.30;;;6.70;99.90;;;;;;5013735;28;20034;-76
2023/11/12 02:54:04;;;;;;;31.05;17.45;;;6.70;99.90;;;;;;5013990;28;20121;-75
2023/11/12 02:56:30;;;;;;;26.65;16.40;;;6.60;99.90;;;;;;5014749;28;20041;-75
2023/11/12 02:58:56;;;;;;;28.77;16.83;;;6.60;99.90;;;;;;5014432;28;20025;-75
2023/11/12 03:01:22;;;;;;;35.50;17.55;;;6.60;99.90;;;;;;5014391;28;20431;-75
2023/11/12 03:03:47;;;;;;;30.10;18.80;;;6.50;99.90;;;;;;5014409;28;20034;-76
2023/11/12 03:06:13;;;;;;;35.60;18.35;;;6.50;99.90;;;;;;5013954;28;20026;-74
2023/11/12 03:08:41;;;;;;;30.63;18.83;;;6.50;99.90;;;;;;5014613;28;20120;-76
2023/11/12 03:11:09;;;;;;;34.88;18.92;;;6.50;99.90;;;;;;5013850;28;20045;-76
2023/11/12 03:13:35;;;;;;;35.42;20.02;;;6.40;99.90;;;;;;5013869;28;20026;-76
2023/11/12 03:16:00;;;;;;;31.63;18.45;;;6.40;99.90;;;;;;5014061;28;20030;-74
2023/11/12 03:18:26;;;;;;;37.17;19.63;;;6.40;99.90;;;;;;5014640;28;20022;-75
2023/11/12 03:20:52;;;;;;;32.60;20.42;;;6.40;99.90;;;;;;5014077;28;20156;-76
2023/11/12 03:23:18;;;;;;;33.90;20.17;;;6.40;99.90;;;;;;5014157;28;20030;-77
2023/11/12 03:25:45;;;;;;;37.78;20.75;;;6.40;99.90;;;;;;5014469;28;20518;-75
2023/11/12 03:28:10;;;;;;;35.50;20.73;;;6.30;99.90;;;;;;5014442;28;20026;-74
2023/11/12 03:30:39;;;;;;;39.42;20.15;;;6.30;99.90;;;;;;5013760;28;20033;-76
2023/11/12 03:33:06;;;;;;;34.03;20.00;;;6.20;99.90;;;;;;5014049;28;20372;-76
2023/11/12 03:35:31;;;;;;;33.97;19.63;;;6.20;99.90;;;;;;5013049;28;20033;-76
2023/11/12 03:37:57;;;;;;;31.83;19.55;;;6.20;99.90;;;;;;5013735;28;20022;-74
2023/11/12 03:40:23;;;;;;;33.53;20.73;;;6.00;99.90;;;;;;5013708;28;20034;-76
2023/11/12 03:42:49;;;;;;;40.92;22.05;;;6.00;99.90;;;;;;5013921;28;20228;-74
2023/11/12 03:45:15;;;;;;;41.05;21.83;;;6.00;99.90;;;;;;5013328;28;20473;-76
2023/11/12 03:47:41;;;;;;;39.55;22.48;;;6.00;99.90;;;;;;5013890;28;20041;-74
2023/11/12 03:50:08;;;;;;;39.83;22.17;;;6.00;99.90;;;;;;5014209;28;20072;-76
2023/11/12 03:52:33;;;;;;;39.95;22.17;;;6.10;99.90;;;;;;5014244;28;20057;-76
2023/11/12 03:54:59;;;;;;;38.05;21.08;;;6.30;99.90;;;;;;5017595;28;20084;-76
2023/11/12 03:57:25;;;;;;;37.60;21.88;;;6.30;99.90;;;;;;5017102;28;20022;-73
2023/11/12 03:59:52;;;;;;;35.72;21.10;;;6.30;99.90;;;;;;5017585;28;20030;-74
2023/11/12 04:02:20;;;;;;;36.00;20.65;;;6.30;99.90;;;;;;5017598;28;20125;-74
2023/11/12 04:04:46;;;;;;;36.28;21.77;;;6.30;99.90;;;;;;5017127;28;20502;-74
2023/11/12 04:07:12;;;;;;;39.33;21.38;;;6.30;99.90;;;;;;5017479;28;20034;-74
2023/11/12 04:09:39;;;;;;;36.33;21.67;;;6.30;99.90;;;;;;5017305;28;20088;-75
2023/11/12 04:12:05;;;;;;;35.03;20.98;;;6.30;99.90;;;;;;5016539;28;20046;-74
2023/11/12 04:14:31;;;;;;;35.28;20.48;;;6.30;99.90;;;;;;5016701;28;20084;-75
2023/11/12 04:16:57;;;;;;;37.58;20.35;;;6.30;99.90;;;;;;5017105;28;20030;-76
2023/11/12 04:19:24;;;;;;;41.20;21.60;;;6.30;99.90;;;;;;5017219;28;20026;-75
2023/11/12 04:21:50;;;;;;;30.35;18.95;;;6.30;99.90;;;;;;5017207;28;20038;-75
2023/11/12 04:24:16;;;;;;;32.03;19.58;;;6.30;99.90;;;;;;5017249;28;20059;-75
2023/11/12 04:26:42;;;;;;;37.95;20.23;;;6.30;99.90;;;;;;5017426;28;20030;-75
2023/11/12 04:29:08;;;;;;;36.58;19.83;;;6.30;99.90;;;;;;5017161;28;20026;-75
2023/11/12 04:31:35;;;;;;;30.35;18.55;;;6.30;99.90;;;;;;5016850;28;20030;-76
2023/11/12 04:34:01;;;;;;;33.47;20.15;;;6.30;99.90;;;;;;5016946;28;20026;-75
2023/11/12 04:36:27;;;;;;;33.30;19.25;;;6.20;99.90;;;;;;5017377;28;20084;-75
2023/11/12 04:38:53;;;;;;;34.35;20.92;;;6.20;99.90;;;;;;5016765;28;20371;-75
2023/11/12 04:41:19;;;;;;;34.80;19.60;;;6.10;99.90;;;;;;5016705;28;20116;-75
2023/11/12 04:43:44;;;;;;;36.85;20.73;;;6.10;99.90;;;;;;5016577;28;20080;-75
2023/11/12 04:46:11;;;;;;;34.30;19.80;;;6.00;99.90;;;;;;5016815;28;20037;-75
2023/11/12 04:48:38;;;;;;;34.90;20.63;;;5.90;99.90;;;;;;5016521;28;20025;-75
2023/11/12 04:51:08;;;;;;;34.35;20.20;;;5.80;99.90;;;;;;5016212;28;20026;-75
2023/11/12 04:53:33;;;;;;;38.75;21.48;;;5.70;99.90;;;;;;5016593;28;20034;-75
2023/11/12 04:55:59;;;;;;;38.53;22.77;;;5.70;99.90;;;;;;5016285;28;20392;-75
2023/11/12 04:58:24;;;;;;;40.75;22.63;;;5.60;99.90;;;;;;5016767;28;20484;-74
2023/11/12 05:00:52;;;;;;;39.22;21.88;;;5.70;99.90;;;;;;5016730;28;20097;-75
2023/11/12 05:03:20;;;;;;;44.90;22.67;;;5.70;99.90;;;;;;5016272;28;20387;-76
2023/11/12 05:05:46;;;;;;;34.10;21.23;;;5.70;99.90;;;;;;5015493;28;20032;-75
2023/11/12 05:08:11;;;;;;;39.95;22.27;;;5.60;99.90;;;;;;5016396;28;20030;-76
2023/11/12 05:10:37;;;;;;;39.75;22.35;;;5.60;99.90;;;;;;5015851;28;20057;-75
2023/11/12 05:13:03;;;;;;;37.20;21.88;;;5.60;99.90;;;;;;5016229;28;20027;-76
2023/11/12 05:15:29;;;;;;;35.78;22.23;;;5.60;99.90;;;;;;5015883;28;20468;-75
2023/11/12 05:17:54;;;;;;;36.67;21.33;;;5.70;99.90;;;;;;5015804;28;20080;-76
2023/11/12 05:20:20;;;;;;;40.20;22.58;;;5.80;99.90;;;;;;5016067;28;20034;-75
2023/11/12 05:22:46;;;;;;;38.05;21.23;;;5.80;99.90;;;;;;5015601;28;20126;-75
2023/11/12 05:25:12;;;;;;;35.17;20.05;;;5.90;99.90;;;;;;5015588;28;20117;-75
2023/11/12 05:27:38;;;;;;;34.30;21.42;;;6.00;99.90;;;;;;5016229;28;20022;-76
2023/11/12 05:30:05;;;;;;;35.00;20.52;;;6.00;99.90;;;;;;5016119;28;20341;-75
2023/11/12 05:32:31;;;;;;;38.00;20.08;;;6.10;99.90;;;;;;5015850;28;20387;-75
2023/11/12 05:34:57;;;;;;;33.47;19.38;;;6.20;99.90;;;;;;5016107;28;20030;-75
2023/11/12 05:37:22;;;;;;;30.45;18.90;;;6.20;99.90;;;;;;5016150;28;20026;-75
2023/11/12 05:39:48;;;;;;;31.17;18.85;;;6.20;99.90;;;;;;5016017;28;20368;-75
2023/11/12 05:42:13;;;;;;;29.52;17.77;;;6.30;99.90;;;;;;5015564;28;20034;-75
2023/11/12 05:44:39;;;;;;;30.70;18.17;;;6.30;99.90;;;;;;5015697;28;20129;-76
2023/11/12 05:47:05;;;;;;;26.40;16.02;;;6.30;99.90;;;;;;5015916;28;20041;-76
2023/11/12 05:49:30;;;;;;;28.33;17.27;;;6.20;99.90;;;;;;5015787;28;20384;-75
2023/11/12 05:51:56;;;;;;;28.95;17.02;;;6.30;99.90;;;;;;5015089;28;20108;-75
2023/11/12 05:54:22;;;;;;;27.75;16.58;;;6.30;99.90;;;;;;5015057;28;20108;-76
2023/11/12 05:56:47;;;;;;;28.50;16.98;;;6.30;99.90;;;;;;5015175;28;20028;-75
2023/11/12 05:59:13;;;;;;;25.83;15.23;;;6.30;99.90;;;;;;5015543;28;20104;-76
2023/11/12 06:01:38;;;;;;;28.80;16.00;;;6.30;99.90;;;;;;5015066;28;20034;-75
2023/11/12 06:04:04;;;;;;;28.15;15.63;;;6.30;99.90;;;;;;5015568;28;20022;-75
2023/11/12 06:06:30;;;;;;;23.48;16.17;;;6.30;99.90;;;;;;5015294;28;20408;-75
2023/11/12 06:08:56;;;;;;;30.17;15.38;;;6.30;99.90;;;;;;5015487;28;20052;-75
2023/11/12 06:11:22;;;;;;;30.08;15.10;;;6.30;99.90;;;;;;5014407;28;20100;-76
2023/11/12 06:13:48;;;;;;;23.17;14.88;;;6.40;99.90;;;;;;5014872;28;20030;-77
2023/11/12 06:16:14;;;;;;;27.67;15.95;;;6.30;99.90;;;;;;5014578;28;20064;-75
2023/11/12 06:18:39;;;;;;;24.67;14.98;;;6.30;99.90;;;;;;5015433;28;20060;-76
2023/11/12 06:21:05;;;;;;;26.40;14.43;;;6.30;99.90;;;;;;5014710;28;20384;-75
2023/11/12 06:23:30;;;;;;;24.02;15.02;;;6.30;99.90;;;;;;5015050;28;20112;-75
2023/11/12 06:25:56;;;;;;;24.40;15.65;;;6.30;99.90;;;;;;5014580;28;20475;-76
2023/11/12 06:28:22;;;;;;;28.52;14.93;;;6.30;99.90;;;;;;5014635;28;20041;-75
2023/11/12 06:30:50;;;;;;;26.63;15.35;;;6.30;99.90;;;;;;5015158;28;20447;-76
2023/11/12 06:33:15;;;;;;;25.52;15.05;;;6.30;99.90;;;;;;5014846;28;20022;-76
2023/11/12 06:35:41;;;;;;;26.95;15.48;;;6.30;99.90;;;;;;5014760;28;20037;-75
2023/11/12 06:38:07;;;;;;;27.45;16.33;;;6.30;99.90;;;;;;5014976;28;20468;-76
2023/11/12 06:40:32;;;;;;;24.90;15.60;;;6.30;99.90;;;;;;5014809;28;20379;-76
2023/11/12 06:42:58;;;;;;;26.58;16.02;;;6.30;99.90;;;;;;5014698;28;20508;-76
2023/11/12 06:45:23;;;;;;;30.45;18.27;;;6.30;99.90;;;;;;5014887;28;20033;-76
2023/11/12 06:47:49;;;;;;;26.15;17.23;;;6.30;99.90;;;;;;5014288;28;20030;-76
2023/11/12 06:50:15;;;;;;;28.17;16.65;;;6.30;99.90;;;;;;5014807;28;20432;-75
2023/11/12 06:52:40;;;;;;;28.02;16.02;;;6.30;99.90;;;;;;5014691;28;20030;-76
2023/11/12 06:55:07;;;;;;;24.67;15.55;;;6.30;99.90;;;;;;5014762;28;20032;-76
2023/11/12 06:57:33;;;;;;;30.60;16.98;;;6.30;99.90;;;;;;5014521;28;20468;-74
2023/11/12 06:59:59;;;;;;;29.63;16.45;;;6.30;99.90;;;;;;5014103;28;20460;-75
2023/11/12 07:02:25;;;;;;;33.58;17.15;;;6.30;99.90;;;;;;5014334;28;20026;-75
2023/11/12 07:04:51;;;;;;;29.80;17.92;;;6.30;99.90;;;;;;5014060;28;20495;-76
2023/11/12 07:07:16;;;;;;;31.58;16.70;;;6.20;99.90;;;;;;5014195;28;20029;-75
2023/11/12 07:09:42;;;;;;;30.00;17.70;;;6.10;99.90;;;;;;5014162;28;20049;-75
2023/11/12 07:12:08;;;;;;;27.02;18.20;;;6.10;99.90;;;;;;5013477;28;20389;-75
2023/11/12 07:14:34;;;;;;;31.10;17.75;;;6.00;99.90;;;;;;5014406;28;20464;-75
2023/11/12 07:16:59;;;;;;;29.08;16.95;;;6.00;99.90;;;;;;5013903;28;20120;-75
2023/11/12 07:19:25;;;;;;;26.90;17.45;;;6.00;99.90;;;;;;5014295;28;20030;-76
2023/11/12 07:21:52;;;;;;;28.42;16.52;;;6.00;99.90;;;;;;5014459;28;20034;-76
2023/11/12 07:24:17;;;;;;;27.85;17.60;;;6.10;99.90;;;;;;5014334;28;20049;-75
2023/11/12 07:26:44;;;;;;;30.58;16.50;;;6.20;99.90;;;;;;5013858;28;20026;-76
2023/11/12 07:29:13;;;;;;;24.67;15.32;;;6.20;99.90;;;;;;5017816;28;20030;-75
2023/11/12 07:31:39;;;;;;;24.55;15.10;;;6.30;99.90;;;;;;5018319;28;20036;-75
2023/11/12 07:34:06;;;;;;;23.58;15.32;;;6.30;99.90;;;;;;5018498;28;20030;-76
2023/11/12 07:36:32;;;;;;;24.08;14.40;;;6.40;99.90;;;;;;5018217;28;20069;-75
2023/11/12 07:38:57;;;;;;;25.65;15.05;;;6.40;99.90;;;;;;5017559;28;20060;-75
2023/11/12 07:41:23;;;;;;;25.38;13.60;;;6.50;99.90;;;;;;5018215;28;20368;-75
2023/11/12 07:43:49;;;;;;;21.95;14.85;;;6.50;99.90;;;;;;5017875;28;20034;-76
2023/11/12 07:46:15;;;;;;;22.60;14.45;;;6.50;99.90;;;;;;5017047;28;20499;-75
2023/11/12 07:48:42;;;;;;;26.00;14.75;;;6.50;99.90;;;;;;5017680;28;20476;-75
2023/11/12 07:51:07;;;;;;;22.23;13.63;;;6.60;99.90;;;;;;5017797;28;20120;-75
2023/11/12 07:53:33;;;;;;;19.92;12.38;;;6.60;99.90;;;;;;5018065;28;20538;-75
2023/11/12 07:55:59;;;;;;;19.45;12.93;;;6.60;99.90;;;;;;5018007;28;20360;-76
2023/11/12 07:58:24;;;;;;;18.85;12.52;;;6.60;99.90;;;;;;5017321;28;20072;-76
2023/11/12 08:00:50;;;;;;;17.92;11.70;;;6.70;99.90;;;;;;5017181;28;20021;-76
2023/11/12 08:03:16;;;;;;;19.25;10.73;;;6.80;99.90;;;;;;5017522;28;20388;-75
2023/11/12 08:05:41;;;;;;;16.65;11.73;;;6.70;99.90;;;;;;5016842;28;20036;-76
2023/11/12 08:08:08;;;;;;;18.15;11.35;;;6.80;99.90;;;;;;5017781;28;20033;-76
2023/11/12 08:10:37;;;;;;;17.38;10.98;;;6.80;99.90;;;;;;5017093;28;20046;-76
2023/11/12 08:13:03;;;;;;;20.55;11.10;;;6.90;99.90;;;;;;5017315;28;20026;-76
2023/11/12 08:15:29;;;;;;;17.30;10.77;;;6.90;99.90;;;;;;5017542;28;20452;-75
2023/11/12 08:17:54;;;;;;;20.98;10.60;;;6.90;99.90;;;;;;5017257;28;20018;-75
2023/11/12 08:20:20;;;;;;;18.80;11.10;;;7.00;99.90;;;;;;5016829;28;20083;-76
2023/11/12 08:22:46;;;;;;;13.25;8.93;;;7.00;99.90;;;;;;5017508;28;20041;-75
2023/11/12 08:25:12;;;;;;;13.60;9.80;;;7.10;99.90;;;;;;5017208;28;20030;-76
2023/11/12 08:27:38;;;;;;;13.68;9.40;;;7.10;99.90;;;;;;5017384;28;20109;-74
2023/11/12 08:30:05;;;;;;;14.20;9.10;;;7.20;99.90;;;;;;5017245;28;20112;-76
2023/11/12 08:32:31;;;;;;;15.38;9.63;;;7.20;99.90;;;;;;5016471;28;20472;-76
2023/11/12 08:34:57;;;;;;;12.50;9.00;;;7.30;99.90;;;;;;5017003;28;20022;-75
2023/11/12 08:37:26;;;;;;;16.33;9.32;;;7.30;99.90;;;;;;5016803;28;20112;-76
2023/11/12 08:39:52;;;;;;;17.80;9.88;;;7.30;99.90;;;;;;5016051;28;20033;-76
2023/11/12 08:42:17;;;;;;;13.15;8.88;;;7.40;99.90;;;;;;5017183;28;20030;-76
2023/11/12 08:44:43;;;;;;;13.32;9.40;;;7.50;99.90;;;;;;5017091;28;20034;-76
2023/11/12 08:47:08;;;;;;;17.40;8.82;;;7.60;99.90;;;;;;5016335;28;20367;-76
2023/11/12 08:49:34;;;;;;;13.75;9.23;;;7.80;99.90;;;;;;5016587;28;20389;-76
2023/11/12 08:52:00;;;;;;;15.02;8.98;;;7.80;99.90;;;;;;5016454;28;20034;-75
2023/11/12 08:54:25;;;;;;;12.57;7.57;;;7.90;99.90;;;;;;5016466;28;20022;-76
2023/11/12 08:56:53;;;;;;;11.55;8.65;;;7.90;99.90;;;;;;5016373;28;20026;-76
2023/11/12 08:59:19;;;;;;;13.80;7.90;;;7.90;99.90;;;;;;5015974;28;20469;-76
2023/11/12 09:01:44;;;;;;;11.93;7.50;;;7.90;99.90;;;;;;5016743;28;20029;-76
2023/11/12 09:04:10;;;;;;;11.63;7.45;;;7.90;99.90;;;;;;5016133;28;20502;-75
2023/11/12 09:06:35;;;;;;;11.05;7.95;;;7.90;99.90;;;;;;5016430;28;20034;-76
2023/11/12 09:09:05;;;;;;;11.95;7.78;;;7.90;99.90;;;;;;5016283;28;20030;-75
2023/11/12 09:11:32;;;;;;;12.65;7.53;;;8.10;99.90;;;;;;5015328;28;20046;-76
2023/11/12 09:14:01;;;;;;;13.27;7.68;;;8.00;99.90;;;;;;5016203;28;20030;-75
2023/11/12 09:16:27;;;;;;;12.98;8.05;;;8.00;99.90;;;;;;5016007;28;20025;-75
2023/11/12 09:18:53;;;;;;;16.55;7.63;;;8.00;99.90;;;;;;5016001;28;20479;-75
2023/11/12 09:21:19;;;;;;;14.00;7.45;;;8.00;99.90;;;;;;5016386;28;20053;-75
2023/11/12 09:23:46;;;;;;;10.45;6.85;;;8.10;99.90;;;;;;5016052;28;20029;-75
2023/11/12 09:26:26;;;;;;;11.32;6.82;;;8.00;96.60;;;;;;5015934;28;20506;-75
2023/11/12 09:28:52;;;;;;;13.18;7.10;;;8.00;99.90;;;;;;5015935;28;20396;-75
2023/11/12 09:31:19;;;;;;;10.23;6.63;;;7.90;99.50;;;;;;5015666;28;20033;-76
2023/11/12 09:33:46;;;;;;;9.07;6.38;;;7.90;98.30;;;;;;5015846;28;20476;-76
2023/11/12 09:36:12;;;;;;;8.43;6.40;;;8.00;99.90;;;;;;5016034;28;20088;-76
2023/11/12 09:38:39;;;;;;;12.48;6.55;;;8.00;96.40;;;;;;5015567;28;20030;-76
2023/11/12 09:41:06;;;;;;;10.73;6.85;;;8.00;97.80;;;;;;5015945;28;20022;-76
2023/11/12 09:43:33;;;;;;;11.43;6.68;;;8.00;99.90;;;;;;5015315;28;20052;-76
2023/11/12 09:45:59;;;;;;;9.10;6.50;;;8.10;96.60;;;;;;5015041;28;20030;-75
2023/11/12 09:48:35;;;;;;;8.18;5.90;;;8.20;92.90;;;;;;5015882;28;20099;-75
2023/11/12 09:51:05;;;;;;;8.90;6.15;;;8.30;87.50;;;;;;5013751;28;20065;-75
2023/11/12 09:53:32;;;;;;;8.32;6.07;;;8.30;74.50;;;;;;5015709;28;20261;-77
2023/11/12 09:55:58;;;;;;;7.93;5.90;;;8.30;63.50;;;;;;5015669;28;20121;-75
2023/11/12 09:58:23;;;;;;;12.27;6.20;;;8.40;79.90;;;;;;5015350;28;20053;-75
2023/11/12 10:00:54;;;;;;;7.50;5.82;;;8.40;66.00;;;;;;5015169;28;20038;-76
2023/11/12 10:03:19;;;;;;;10.32;5.32;;;8.50;57.50;;;;;;5015243;28;20145;-76
2023/11/12 10:05:45;;;;;;;10.27;5.72;;;8.50;57.80;;;;;;5014667;28;20034;-76
2023/11/12 10:08:11;;;;;;;9.20;5.32;;;8.70;38.60;;;;;;5015282;28;20044;-76
2023/11/12 10:10:37;;;;;;;7.28;4.97;;;8.80;39.50;;;;;;5014719;28;20054;-75
2023/11/12 10:13:04;;;;;;;8.40;5.55;;;9.00;28.40;;;;;;5015237;28;20353;-75
2023/11/12 10:15:33;;;;;;;8.35;5.63;;;9.00;14.90;;;;;;5014671;28;20025;-76
2023/11/12 10:18:00;;;;;;;7.15;5.47;;;9.00;16.00;;;;;;5014702;28;20464;-76
2023/11/12 10:20:27;;;;;;;5.88;4.97;;;9.20;11.80;;;;;;5015284;28;20036;-75
2023/11/12 10:22:54;;;;;;;8.18;4.97;;;9.30;3.10;;;;;;5014549;28;20419;-75
2023/11/12 10:25:41;;;;;;;7.13;4.88;;;10.00;1.00;;;;;;5014254;28;20030;-76
2023/11/12 10:28:09;;;;;;;7.05;4.97;;;10.20;1.00;;;;;;5014774;28;20037;-75
2023/11/12 10:30:37;;;;;;;5.00;3.90;;;11.20;1.00;;;;;;5014372;28;20018;-76
2023/11/12 10:33:20;;;;;;;8.85;4.88;;;12.00;1.00;;;;;;5014708;28;20464;-76
2023/11/12 10:35:47;;;;;;;5.87;4.40;;;11.80;1.00;;;;;;5015039;28;20025;-75
2023/11/12 10:38:16;;;;;;;6.47;4.03;;;12.60;1.00;;;;;;5015008;28;20044;-75
2023/11/12 10:41:04;;;;;;;5.65;3.90;;;12.70;20.10;;;;;;5013667;28;20033;-76
2023/11/12 10:43:30;;;;;;;5.97;3.90;;;12.70;1.00;;;;;;5014020;28;20057;-75
2023/11/12 10:45:59;;;;;;;6.07;3.80;;;12.80;1.00;;;;;;5014828;28;20483;-76
2023/11/12 10:48:35;;;;;;;5.88;3.60;;;13.00;99.90;;;;;;5016090;28;20084;-75
2023/11/12 10:51:04;;;;;;;4.22;3.53;;;12.80;99.90;;;;;;5014307;28;20038;-75
2023/11/12 10:53:31;;;;;;;6.60;3.75;;;12.50;99.90;;;;;;5014631;28;20053;-76
2023/11/12 10:56:00;;;;;;;5.55;3.30;;;12.80;99.90;;;;;;5014118;28;20030;-75
2023/11/12 10:58:28;;;;;;;5.07;3.38;;;12.90;99.90;;;;;;5014227;28;20025;-75
2023/11/12 11:00:58;;;;;;;4.57;2.90;;;13.20;1.00;;;;;;5014105;28;20033;-75
2023/11/12 11:03:28;;;;;;;5.13;3.15;;;13.20;34.40;;;;;;5014303;28;20030;-75
2023/11/12 11:05:59;;;;;;;5.47;2.90;;;13.40;43.40;;;;;;5013957;28;20357;-75
2023/11/12 11:08:26;;;;;;;6.53;2.90;;;13.20;1.00;;;;;;5013619;28;20030;-76
2023/11/12 11:10:54;;;;;;;5.95;3.00;;;13.10;99.90;;;;;;5013347;28;20050;-75
2023/11/12 11:13:22;;;;;;;7.07;3.40;;;13.10;1.00;;;;;;5013754;28;20057;-75
2023/11/12 11:15:52;;;;;;;3.72;3.20;;;12.40;1.00;;;;;;5014237;28;20037;-76
2023/11/12 11:21:14;;;;;;;6.70;3.47;;;11.90;1.00;;;;;;5071331;28;20433;-74
2023/11/12 11:23:42;;;;;;;6.13;3.85;;;11.60;99.90;;;;;;5070951;28;20487;-74
2023/11/12 11:26:32;;;;;;;6.00;3.80;;;11.30;99.90;;;;;;5071095;28;20071;-74
2023/11/12 11:34:40;;;;;;;10.02;3.80;;;11.30;1.00;;;;;;5111928;27;20618;-75
2023/11/12 11:37:08;;;;;;;7.18;3.65;;;11.00;99.90;;;;;;5112111;28;20027;-75
2023/11/12 11:39:35;;;;;;;4.95;3.55;;;11.00;99.90;;;;;;5112046;28;20062;-76
2023/11/12 11:44:44;;;;;;;7.03;3.70;;;10.90;99.90;;;;;;5062490;22;20849;-75
2023/11/12 11:47:16;;;;;;;7.20;3.90;;;10.80;99.90;;;;;;5051670;28;20060;-75
2023/11/12 11:50:04;;;;;;;6.20;3.92;;;10.80;1.00;;;;;;5050892;28;20076;-76
2023/11/12 11:52:30;;;;;;;6.90;3.92;;;10.80;99.90;;;;;;5051174;28;20017;-75
2023/11/12 11:57:44;;;;;;;8.85;4.22;;;10.80;99.90;;;;;;5062440;22;20424;-75
2023/11/12 12:00:15;;;;;;;8.25;4.50;;;11.10;1.00;;;;;;5051580;28;20565;-75
2023/11/12 12:02:43;;;;;;;6.18;4.63;;;11.10;99.90;;;;;;5050997;28;20029;-76
2023/11/12 12:05:13;;;;;;;8.52;4.35;;;11.20;1.00;;;;;;5051878;28;20467;-75
2023/11/12 12:07:44;;;;;;;5.32;4.38;;;11.30;99.90;;;;;;5051060;28;20022;-74
2023/11/12 12:10:25;;;;;;;6.20;3.85;;;11.20;99.90;;;;;;5052742;28;20025;-75
2023/11/12 12:12:53;;;;;;;7.82;4.45;;;11.20;99.90;;;;;;5053369;28;20069;-75
2023/11/12 12:15:18;;;;;;;6.03;4.50;;;11.10;1.00;;;;;;5051088;28;20052;-75
2023/11/12 12:17:44;;;;;;;6.13;4.05;;;11.30;99.90;;;;;;5051082;28;20060;-75
2023/11/12 12:20:10;;;;;;;8.40;4.05;;;11.40;99.90;;;;;;5050998;28;20030;-75
2023/11/12 12:22:37;;;;;;;5.43;3.63;;;11.50;99.90;;;;;;5050974;28;20108;-75
2023/11/12 12:25:04;;;;;;;8.45;4.18;;;11.70;99.90;;;;;;5051000;28;20025;-75
2023/11/12 12:27:30;;;;;;;9.77;4.20;;;11.90;99.90;;;;;;5051007;28;20032;-75
2023/11/12 12:29:55;;;;;;;7.80;4.32;;;11.80;10.40;;;;;;5052082;28;20379;-75
2023/11/12 12:32:23;;;;;;;5.70;3.50;;;11.80;1.00;;;;;;5051026;28;20021;-75
2023/11/12 12:34:56;;;;;;;6.20;4.18;;;11.80;99.90;;;;;;5051103;28;20061;-75
2023/11/12 12:37:24;;;;;;;5.77;3.50;;;11.80;1.00;;;;;;5050802;28;20379;-76
2023/11/12 12:39:56;;;;;;;7.43;4.13;;;11.70;99.90;;;;;;5049905;28;20260;-74
2023/11/12 12:42:23;;;;;;;9.13;4.32;;;11.70;99.90;;;;;;5050882;28;20037;-75
2023/11/12 12:44:51;;;;;;;5.38;3.30;;;11.70;99.90;;;;;;5051521;28;20025;-75
2023/11/12 12:47:39;;;;;;;4.88;3.20;;;11.70;99.90;;;;;;5051343;28;20025;-75
2023/11/12 12:50:25;;;;;;;3.28;2.78;;;11.80;99.90;;;;;;5050265;28;20033;-76
2023/11/12 12:52:52;;;;;;;5.47;2.70;;;11.80;99.90;;;;;;5049405;28;20029;-75